Date,TemperatureHighF,TemperatureAvgF,TemperatureLowF,DewpointHighF,DewpointAvgF,DewpointLowF,HumidityHigh,HumidityAvg,HumidityLow,PressureMaxIn,PressureMinIn,WindSpeedMaxMPH,WindSpeedAvgMPH,GustSpeedMaxMPH,PrecipitationSumIn
2013-1-1,36.0,18.6,9.0,20.0,13.2,6.0,91,80,51,0.00,40.00,7,3,11,0.00
2013-1-2,36.0,17.0,5.0,20.0,10.4,1.0,91,76,52,0.00,40.00,10,7,16,0.00
2013-1-3,31.0,17.1,6.0,17.0,11.0,3.0,93,78,55,0.00,40.00,10,5,16,0.00
2013-1-4,34.0,19.6,9.0,20.0,13.9,5.0,94,80,53,0.00,40.00,8,4,10,0.00
2013-1-5,29.0,22.5,16.0,26.0,19.6,13.0,97,88,74,0.00,40.00,5,3,8,0.00
2013-1-6,32.0,27.3,26.0,29.0,26.4,25.0,99,96,90,0.00,40.00,7,3,11,0.10
2013-1-7,40.0,32.2,26.0,36.0,31.2,25.0,99,96,81,0.00,40.00,7,4,11,0.04
2013-1-8,46.0,36.3,30.0,34.0,32.0,29.0,99,85,62,0.00,40.00,9,4,14,0.04
2013-1-9,39.0,30.7,22.0,32.0,26.4,16.0,99,84,71,0.00,40.00,16,7,30,0.02
2013-1-10,31.0,22.8,18.0,22.0,17.3,14.0,94,80,58,0.00,40.00,14,5,22,0.01
2013-1-11,30.0,21.4,9.0,18.0,11.8,3.0,92,68,33,0.00,40.00,15,6,22,0.02
2013-1-12,20.0,7.4,-3.0,7.0,1.1,-8.0,85,76,54,0.00,40.00,6,4,9,0.01
2013-1-13,29.0,8.3,-6.0,7.0,-1.7,-12.0,81,65,38,0.00,40.00,7,4,10,0.00
2013-1-14,27.0,11.9,-1.0,8.0,1.8,-6.0,79,65,41,0.00,40.00,8,4,12,0.00
2013-1-15,35.0,18.9,5.0,14.0,7.6,1.0,82,63,38,0.00,40.00,8,4,10,0.00
2013-1-16,39.0,21.9,7.0,17.0,12.0,4.0,88,67,39,0.00,40.00,7,4,11,0.00
2013-1-17,40.0,24.9,12.0,20.0,14.2,9.0,87,66,42,0.00,40.00,7,5,11,0.00
2013-1-18,44.0,25.9,11.0,20.0,14.1,8.0,87,63,38,0.00,40.00,8,4,13,0.00
2013-1-19,46.0,26.8,11.0,20.0,12.9,8.0,86,59,33,0.00,40.00,9,5,15,0.00
2013-1-20,46.0,24.8,11.0,18.0,10.3,5.0,79,57,31,0.00,40.00,10,6,15,0.00
2013-1-21,44.0,25.3,11.0,19.0,9.8,5.0,77,54,32,0.00,40.00,9,5,13,0.00
2013-1-22,41.0,27.0,15.0,18.0,12.9,8.0,75,56,39,0.00,40.00,6,4,10,0.00
2013-1-23,46.0,38.2,30.0,35.0,24.8,14.0,99,62,38,0.00,40.00,13,6,31,0.23
2013-1-24,45.0,37.4,34.0,38.0,35.9,34.0,100,95,74,0.00,40.00,6,3,11,0.14
2013-1-25,40.0,36.5,34.0,39.0,36.1,34.0,100,99,94,0.00,40.00,8,4,14,0.29
2013-1-26,40.0,33.2,25.0,37.0,25.9,19.0,99,76,52,0.00,40.00,14,7,22,0.06
2013-1-27,37.0,27.5,19.0,24.0,20.8,17.0,94,76,52,0.00,40.00,9,5,16,0.01
2013-1-28,35.0,30.6,26.0,26.0,23.2,21.0,93,74,62,0.00,40.00,12,7,24,0.01
2013-1-29,41.0,34.5,31.0,29.0,26.2,23.0,91,72,58,0.00,40.00,18,7,24,0.00
2013-1-30,47.0,34.6,26.0,30.0,27.3,25.0,97,77,50,0.00,40.00,5,3,10,0.00
2013-1-31,47.0,33.2,21.0,31.0,26.5,20.0,96,78,54,0.00,40.00,5,3,7,0.00